Lander, WY

9:14 PM MDT on August 27, 2014 (GMT -0600)
Riverton Regional | Change Station
CLOSE
Current Station
Airport
Location: Riverton,
Elevation: 5525 ft
Nearby Weather Stations

Elev 5525 ft 43.06 °N, 108.46 °W | Updated 21 minutes ago

Overcast
Overcast
58 °F
Feels Like 58 °F
N
5
Wind Variable Wind from ESE

Today
High -- | Low -- °F
--% Chance of Precip.
Yesterday
High -- | Low -- °F
Precip. -- in
6:34 AM 7:57 PM
Waxing Crescent, 6% visible
Pressure 30.07 in
Visibility 10.0 miles
Clouds Overcast 10000 ft
Dew Point 53 °F
Humidity 84%
Rainfall 0.07 in
Snow Depth Not available.
UV 0 out of 12
Pollen 8.20 out of 12
Air Quality Not available.
Flu Activity Not available.
METAR KRIW 280253Z AUTO 11004KT 10SM OVC100 14/12 A3019 RMK AO2 SLP181 T01440117 55000

More Conditions Fewer Conditions

Pressure 30.07 in
Visibility 10.0 miles
Clouds Overcast 10000 ft
Dew Point 53 °F
Humidity 84%
Rainfall 0.07 in
Snow Depth Not available.
UV 0 out of 12
Pollen 8.20 out of 12
Air Quality Not available.
Flu Activity Not available.
METAR KRIW 280253Z AUTO 11004KT 10SM OVC100 14/12 A3019 RMK AO2 SLP181 T01440117 55000

More Conditions Fewer Conditions

10-Day Weather Forecast

Almanac

Astronomy

Aug. 27, 2014 Rise Set
Actual Time 6:34 AM MDT 7:57 PM MDT
Civil Twilight 6:04 AM MDT 8:26 PM MDT
Nautical Twilight 5:29 AM MDT 9:02 PM MDT
Astronomical Twilight 4:51 AM MDT 9:39 PM MDT
Moon 8:37 AM MDT (8/27) 8:46 PM MDT (8/27)
Length of Visible Light 14h 22m
Length of Day
13h 23m
Tomorrow will be 2m 45s shorter.
Waxing Crescent, 6% of the Moon is Illuminated
Today
Waxing Crescent
Sep 2
First Quarter
Sep 8
Full
Sep 15
Last Quarter
Sep 24
New

Today's Extremes

State Highs State Lows

Community

WunderPhotos

Upload Photos

1,747,892 photos uploaded!

Nearby

Snow Depth

Station Depth Elevation
Big Sandy Opening 0 in 9080 ft
Owl Creek 0 in 8975 ft
New Fork Lake 3 in 8340 ft
Little Warm 0 in 9370 ft
Kendall R.S. 1 in 7740 ft

Earthquake Activity

City Distance Mag. Time & Date
No recent earthquake activity has been reported nearby.
Minimum magnitude displayed is 2.5.

Coastal Water Temperatures

Place Temperature
No Stations Reporting

Nearby Weather Stations